| time (UTC) | temp F | wind direction | speed MPH | gust MPH | rain 1hr in | rain 24hr in | rain mn in | humidity % | barometer mb |
| 20260901074505 | 72 | 159 | 0.0 | 0.0 | 0.00 | 0.00 | 0.00 | 58 | 1013.9 |
| 20260901073003 | 72 | 159 | 0.0 | 0.0 | 0.00 | 0.00 | 0.00 | 58 | 1014.2 |
| 20260901071502 | 73 | 159 | 0.0 | 0.0 | 0.00 | 0.00 | 0.00 | 56 | 1014.2 |
| 20260901070100 | 73 | 159 | 0.0 | 0.0 | 0.00 | 0.00 | 0.00 | 56 | 1014.3 |
| 20260901064612 | 74 | 159 | 0.0 | 0.0 | 0.00 | 0.00 | 0.00 | 55 | 1014.1 |
| 20260901063058 | 74 | 159 | 0.0 | 0.0 | 0.00 | 0.00 | 0.00 | 54 | 1014.3 |
| 20260901061555 | 75 | 159 | 0.0 | 0.0 | 0.00 | 0.00 | 0.00 | 54 | 1014.5 |
| 20260901060052 | 75 | 159 | 0.0 | 0.0 | 0.00 | 0.00 | 0.00 | 53 | 1014.5 |
| 20260901054551 | 76 | 159 | 0.0 | 0.0 | 0.00 | 0.00 | 0.00 | 53 | 1014.5 |
| 20260901053058 | 76 | 159 | 0.0 | 0.0 | 0.00 | 0.00 | 0.00 | 52 | 1014.4 |
| 20260901051551 | 77 | 159 | 0.0 | 0.0 | 0.00 | 0.00 | 0.00 | 51 | 1014.2 |
| 20260901050043 | 77 | 159 | 0.0 | 0.0 | 0.00 | 0.00 | 0.00 | 52 | 1014.3 |
| 20260901044544 | 78 | 159 | 0.0 | 0.0 | 0.00 | 0.00 | 0.00 | 52 | 1014.2 |
| 20260901043043 | 78 | 159 | 0.0 | 0.0 | 0.00 | 0.00 | 0.00 | 52 | 1013.8 |
| 20260901041542 | 78 | 159 | 0.0 | 0.0 | 0.00 | 0.00 | 0.00 | 52 | 1013.8 |
| 20260901040042 | 79 | 159 | 0.0 | 0.0 | 0.00 | 0.00 | 0.00 | 52 | 1013.6 |
| 20260901034542 | 79 | 159 | 0.0 | 0.0 | 0.00 | 0.00 | 0.00 | 52 | 1013.5 |
| 20260901033044 | 80 | 159 | 0.0 | 0.0 | 0.00 | 0.00 | 0.00 | 52 | 1013.4 |
| 20260901031541 | 81 | 159 | 0.0 | 0.0 | 0.00 | 0.00 | 0.00 | 51 | 1013.4 |
| 20260901030040 | 81 | 159 | 0.0 | 0.0 | 0.00 | 0.00 | 0.00 | 51 | 1013.2 |
| 20260901024540 | 82 | 159 | 0.0 | 0.0 | 0.00 | 0.00 | 0.00 | 50 | 1013.1 |
| 20260901023039 | 83 | 159 | 0.0 | 0.0 | 0.00 | 0.00 | 0.00 | 49 | 1013.1 |
| 20260901021539 | 83 | 159 | 0.0 | 0.0 | 0.00 | 0.00 | 0.00 | 49 | 1012.9 |
| 20260901020038 | 84 | 159 | 0.0 | 0.0 | 0.00 | 0.00 | 0.00 | 48 | 1012.8 |
| 20260901014538 | 86 | 159 | 0.0 | 0.0 | 0.00 | 0.00 | 0.00 | 45 | 1012.7 |
| 20260901013038 | 87 | 159 | 0.0 | 0.0 | 0.00 | 0.00 | 0.00 | 42 | 1012.5 |
| 20260901011540 | 89 | 159 | 0.0 | 0.0 | 0.00 | 0.00 | 0.00 | 39 | 1012.5 |
| 20260901010041 | 91 | 159 | 0.0 | 0.0 | 0.00 | 0.00 | 0.00 | 35 | 1012.4 |
| 20260901004536 | 93 | 159 | 0.0 | 0.0 | 0.00 | 0.00 | 0.00 | 33 | 1012.3 |
| 20260901003036 | 95 | 159 | 0.0 | 0.0 | 0.00 | 0.00 | 0.00 | 33 | 1012.3 |
| 20260901001536 | 96 | 159 | 0.0 | 0.0 | 0.00 | 0.00 | 0.00 | 32 | 1012.3 |
| 20260901000038 | 97 | 159 | 0.0 | 0.0 | 0.00 | 0.00 | 0.00 | 32 | 1012.3 |
| 20260831234540 | 98 | 159 | 0.0 | 1.0 | 0.00 | 0.00 | 0.00 | 30 | 1012.2 |
| 20260831233034 | 98 | 159 | 0.0 | 1.0 | 0.00 | 0.00 | 0.00 | 32 | 1012.2 |
| 20260831231535 | 98 | 159 | 0.0 | 3.0 | 0.00 | 0.00 | 0.00 | 30 | 1012.2 |
| 20260831230035 | 99 | 263 | 0.0 | 3.0 | 0.00 | 0.00 | 0.00 | 29 | 1012.3 |
| 20260831224536 | 99 | 219 | 1.0 | 4.0 | 0.00 | 0.00 | 0.00 | 28 | 1012.2 |
| 20260831223032 | 100 | 203 | 0.0 | 3.0 | 0.00 | 0.00 | 0.00 | 26 | 1012.3 |
| 20260831221534 | 100 | 320 | 0.0 | 6.0 | 0.00 | 0.00 | 0.00 | 27 | 1012.2 |
| 20260831220030 | 100 | 261 | 0.0 | 7.0 | 0.00 | 0.00 | 0.00 | 26 | 1012.4 |
| 20260831214529 | 101 | 267 | 0.0 | 4.0 | 0.00 | 0.00 | 0.00 | 27 | 1012.4 |
| 20260831213029 | 101 | 203 | 1.0 | 7.0 | 0.00 | 0.00 | 0.00 | 26 | 1012.5 |
| 20260831211532 | 101 | 327 | 0.0 | 5.0 | 0.00 | 0.00 | 0.00 | 27 | 1012.4 |
| 20260831210034 | 100 | 225 | 3.0 | 9.0 | 0.00 | 0.00 | 0.00 | 26 | 1012.4 |
| 20260831204537 | 100 | 234 | 0.0 | 6.0 | 0.00 | 0.00 | 0.00 | 31 | 1012.6 |
| 20260831203025 | 100 | 256 | 2.0 | 8.0 | 0.00 | 0.00 | 0.00 | 29 | 1012.7 |
| 20260831201524 | 100 | 139 | 2.0 | 8.0 | 0.00 | 0.00 | 0.00 | 27 | 1012.7 |
| 20260831200022 | 100 | 257 | 0.0 | 6.0 | 0.00 | 0.00 | 0.00 | 28 | 1012.7 |
| 20260831194519 | 100 | 275 | 1.0 | 5.0 | 0.00 | 0.00 | 0.00 | 28 | 1012.8 |
| 20260831193028 | 99 | 98 | 1.0 | 5.0 | 0.00 | 0.00 | 0.00 | 31 | 1012.9 |
| 20260831191512 | 99 | 244 | 2.0 | 6.0 | 0.00 | 0.00 | 0.00 | 30 | 1013.0 |
| 20260831190007 | 97 | 117 | 1.0 | 6.0 | 0.00 | 0.00 | 0.00 | 30 | 1013.1 |
| 20260831184507 | 97 | 273 | 3.0 | 11.0 | 0.00 | 0.00 | 0.00 | 28 | 1013.3 |
| 20260831183006 | 97 | 113 | 1.0 | 5.0 | 0.00 | 0.00 | 0.00 | 30 | 1013.2 |
| 20260831181501 | 96 | 207 | 1.0 | 6.0 | 0.00 | 0.00 | 0.00 | 33 | 1013.4 |
| 20260831180104 | 95 | 49 | 1.0 | 4.0 | 0.00 | 0.00 | 0.00 | 32 | 1013.5 |
| 20260831174554 | 94 | 187 | 2.0 | 7.0 | 0.00 | 0.00 | 0.00 | 34 | 1013.7 |
| 20260831173049 | 92 | 153 | 1.0 | 4.0 | 0.00 | 0.00 | 0.00 | 38 | 1013.7 |
| 20260831171546 | 89 | 148 | 0.0 | 4.0 | 0.00 | 0.00 | 0.00 | 39 | 1013.9 |
| 20260831170045 | 89 | 269 | 1.0 | 4.0 | 0.00 | 0.00 | 0.00 | 39 | 1014.0 |
| 20260831164603 | 89 | 79 | 1.0 | 4.0 | 0.00 | 0.00 | 0.00 | 38 | 1014.0 |
| 20260831163045 | 90 | 117 | 1.0 | 4.0 | 0.00 | 0.00 | 0.00 | 37 | 1014.1 |
| 20260831161559 | 90 | 254 | 2.0 | 11.0 | 0.00 | 0.00 | 0.00 | 38 | 1014.2 |
| 20260831160054 | 89 | 168 | 2.0 | 8.0 | 0.00 | 0.00 | 0.00 | 39 | 1014.2 |
| 20260831154537 | 87 | 157 | 2.0 | 8.0 | 0.00 | 0.00 | 0.00 | 39 | 1014.1 |
| 20260831153034 | 86 | 242 | 1.0 | 6.0 | 0.00 | 0.00 | 0.00 | 42 | 1014.0 |
| 20260831151532 | 85 | 140 | 2.0 | 5.0 | 0.00 | 0.00 | 0.00 | 41 | 1014.1 |
| 20260831150030 | 84 | 108 | 2.0 | 9.0 | 0.00 | 0.00 | 0.00 | 41 | 1014.1 |
| 20260831144530 | 84 | 148 | 1.0 | 5.0 | 0.00 | 0.00 | 0.00 | 43 | 1014.2 |
| 20260831143029 | 83 | 93 | 1.0 | 9.0 | 0.00 | 0.00 | 0.00 | 44 | 1014.2 |
| 20260831141531 | 82 | 131 | 1.0 | 12.0 | 0.00 | 0.00 | 0.00 | 45 | 1014.2 |
| 20260831140026 | 81 | 151 | 0.0 | 3.0 | 0.00 | 0.00 | 0.00 | 47 | 1014.2 |
| 20260831134530 | 80 | 120 | 2.0 | 6.0 | 0.00 | 0.00 | 0.00 | 48 | 1014.2 |
| 20260831133025 | 79 | 94 | 0.0 | 7.0 | 0.00 | 0.00 | 0.00 | 49 | 1014.0 |
| 20260831131542 | 78 | 119 | 0.0 | 3.0 | 0.00 | 0.00 | 0.00 | 51 | 1014.0 |
| 20260831130037 | 77 | 116 | 0.0 | 6.0 | 0.00 | 0.00 | 0.00 | 51 | 1014.0 |
| 20260831124522 | 76 | 163 | 0.0 | 1.0 | 0.00 | 0.00 | 0.00 | 51 | 1014.0 |
| 20260831123024 | 76 | 163 | 0.0 | 0.0 | 0.00 | 0.00 | 0.00 | 51 | 1013.9 |
| 20260831121525 | 76 | 163 | 0.0 | 1.0 | 0.00 | 0.00 | 0.00 | 50 | 1013.7 |
| 20260831120016 | 77 | 164 | 0.0 | 1.0 | 0.00 | 0.00 | 0.00 | 49 | 1013.4 |
| 20260831114515 | 77 | 164 | 0.0 | 2.0 | 0.00 | 0.00 | 0.00 | 48 | 1013.3 |
| 20260831113013 | 77 | 165 | 0.0 | 1.0 | 0.00 | 0.00 | 0.00 | 48 | 1013.2 |
| 20260831111511 | 78 | 165 | 0.0 | 1.0 | 0.00 | 0.00 | 0.00 | 47 | 1013.1 |
| 20260831110013 | 78 | 167 | 0.0 | 1.0 | 0.00 | 0.00 | 0.00 | 47 | 1013.1 |
| 20260831104518 | 79 | 170 | 0.0 | 2.0 | 0.00 | 0.00 | 0.00 | 46 | 1012.9 |
| 20260831103013 | 79 | 148 | 0.0 | 2.0 | 0.00 | 0.00 | 0.00 | 45 | 1012.8 |
| 20260831101504 | 79 | 132 | 0.0 | 3.0 | 0.00 | 0.00 | 0.00 | 45 | 1012.6 |
| 20260831100001 | 80 | 143 | 0.0 | 3.0 | 0.00 | 0.00 | 0.00 | 44 | 1012.2 |
| 20260831094501 | 80 | 119 | 1.0 | 5.0 | 0.00 | 0.00 | 0.00 | 44 | 1012.3 |
| 20260831093112 | 80 | 135 | 1.0 | 3.0 | 0.00 | 0.00 | 0.00 | 43 | 1012.4 |
| 20260831091558 | 80 | 123 | 1.0 | 7.0 | 0.00 | 0.00 | 0.00 | 42 | 1012.4 |
| 20260831090114 | 81 | 130 | 0.0 | 3.0 | 0.00 | 0.00 | 0.00 | 42 | 1012.2 |
| 20260831084556 | 81 | 190 | 0.0 | 4.0 | 0.00 | 0.00 | 0.00 | 42 | 1012.3 |
| 20260831083107 | 81 | 87 | 1.0 | 3.0 | 0.00 | 0.00 | 0.00 | 42 | 1012.4 |
| 20260831081559 | 81 | 105 | 0.0 | 4.0 | 0.00 | 0.00 | 0.00 | 41 | 1012.3 |
| 20260831080123 | 82 | 113 | 0.0 | 3.0 | 0.00 | 0.00 | 0.00 | 40 | 1012.2 |